createdAt,value
2018-10-19T00:00:31.786Z,28.57
2018-10-19T00:03:00.932Z,29.33
2018-10-19T00:05:30.203Z,31.00
2018-10-19T00:07:58.773Z,33.37
2018-10-19T00:10:27.324Z,35.07
2018-10-19T00:12:56.536Z,29.47
2018-10-19T00:15:27.101Z,31.53
2018-10-19T00:17:56.391Z,41.67
2018-10-19T00:20:25.385Z,37.10
2018-10-19T00:22:54.214Z,33.40
2018-10-19T00:25:23.638Z,54.90
2018-10-19T00:27:52.319Z,43.83
2018-10-19T00:30:20.909Z,28.50
2018-10-19T00:32:49.590Z,27.43
2018-10-19T00:35:18.510Z,27.77
2018-10-19T00:37:47.141Z,27.77
2018-10-19T00:40:16.688Z,33.33
2018-10-19T00:42:45.527Z,32.77
2018-10-19T00:45:14.003Z,29.90
2018-10-19T00:47:42.128Z,30.03
2018-10-19T00:50:10.485Z,27.80
2018-10-19T00:52:38.890Z,31.03
2018-10-19T00:55:07.156Z,33.00
2018-10-19T00:57:35.678Z,28.73
2018-10-19T01:00:04.129Z,43.10
2018-10-19T01:02:32.811Z,29.33
2018-10-19T01:05:02.633Z,34.63
2018-10-19T01:07:30.901Z,27.77
2018-10-19T01:09:59.311Z,29.53
2018-10-19T01:12:28.180Z,25.00
2018-10-19T01:14:56.828Z,26.77
2018-10-19T01:17:26.166Z,27.83
2018-10-19T01:19:55.066Z,27.37
2018-10-19T01:22:24.147Z,24.33
2018-10-19T01:24:53.594Z,24.67
2018-10-19T01:27:22.060Z,24.80
2018-10-19T01:29:51.760Z,28.57
2018-10-19T01:32:20.710Z,32.53
2018-10-19T01:34:49.111Z,31.03
2018-10-19T01:37:17.955Z,31.10
2018-10-19T01:39:46.575Z,30.03
2018-10-19T01:42:15.066Z,29.50
2018-10-19T01:44:43.324Z,28.33
2018-10-19T01:47:11.864Z,29.27
2018-10-19T01:49:40.787Z,32.93
2018-10-19T01:52:09.353Z,34.87
2018-10-19T01:54:38.042Z,34.43
2018-10-19T01:57:07.958Z,33.40
2018-10-19T01:59:37.028Z,38.93
2018-10-19T02:02:06.007Z,39.97
2018-10-19T02:04:34.833Z,41.40
2018-10-19T02:07:04.845Z,37.13
2018-10-19T02:09:33.682Z,30.60
2018-10-19T02:12:01.851Z,30.57
2018-10-19T02:14:30.467Z,29.13
2018-10-19T02:16:58.873Z,25.60
2018-10-19T02:19:27.247Z,25.27
2018-10-19T02:21:55.498Z,29.00
2018-10-19T02:24:23.929Z,28.00
2018-10-19T02:26:52.162Z,25.93
2018-10-19T02:29:20.731Z,26.43
2018-10-19T02:31:49.078Z,26.70
2018-10-19T02:34:17.445Z,27.03
2018-10-19T02:36:46.814Z,27.60
2018-10-19T02:39:15.240Z,32.40
2018-10-19T02:41:43.711Z,24.83
2018-10-19T02:44:12.984Z,29.57
2018-10-19T02:46:41.506Z,27.27
2018-10-19T02:49:09.953Z,28.93
2018-10-19T02:51:38.710Z,30.57
2018-10-19T02:54:07.833Z,31.17
2018-10-19T02:56:36.340Z,27.97
2018-10-19T02:59:05.644Z,34.20
2018-10-19T03:01:33.950Z,30.90
2018-10-19T03:04:02.433Z,28.40
2018-10-19T03:06:30.670Z,26.60
2018-10-19T03:08:58.909Z,33.37
2018-10-19T03:11:27.493Z,32.40
2018-10-19T03:13:57.866Z,34.47
2018-10-19T03:16:26.076Z,30.70
2018-10-19T03:18:54.443Z,37.87
2018-10-19T03:21:22.625Z,37.10
2018-10-19T03:23:51.831Z,33.23
2018-10-19T03:26:21.069Z,31.90
2018-10-19T03:28:50.404Z,30.50
2018-10-19T03:31:18.812Z,33.87
2018-10-19T03:33:47.208Z,38.07
2018-10-19T03:36:15.772Z,37.67
2018-10-19T03:38:44.346Z,38.53
2018-10-19T03:41:12.954Z,34.90
2018-10-19T03:43:41.192Z,31.00
2018-10-19T03:46:09.539Z,44.83
2018-10-19T03:48:39.103Z,45.23
2018-10-19T03:51:07.438Z,44.33
2018-10-19T03:53:35.867Z,43.13
2018-10-19T03:56:04.488Z,43.07
2018-10-19T03:58:33.799Z,49.23
2018-10-19T04:01:02.427Z,43.53
2018-10-19T04:03:30.700Z,41.17
2018-10-19T04:05:59.003Z,40.30
2018-10-19T04:08:27.242Z,61.57
2018-10-19T04:10:55.493Z,55.07
2018-10-19T04:13:23.746Z,57.17
2018-10-19T04:15:53.559Z,58.27
2018-10-19T04:18:21.799Z,55.80
2018-10-19T04:20:49.975Z,61.77
2018-10-19T04:23:18.352Z,62.03
2018-10-19T04:25:46.519Z,56.00
2018-10-19T04:28:15.782Z,58.90
2018-10-19T04:30:43.968Z,64.40
2018-10-19T04:33:12.892Z,77.37
2018-10-19T04:35:41.329Z,69.37
2018-10-19T04:38:09.716Z,73.47
2018-10-19T04:40:37.959Z,58.07
2018-10-19T04:43:06.444Z,73.20
2018-10-19T04:45:34.878Z,77.00
2018-10-19T04:48:03.226Z,82.57
2018-10-19T04:50:31.519Z,81.57
2018-10-19T04:53:00.093Z,103.03
2018-10-19T04:55:28.390Z,89.03
2018-10-19T04:57:56.733Z,82.53
2018-10-19T05:00:24.971Z,95.07
2018-10-19T05:02:53.178Z,90.37
2018-10-19T05:05:22.165Z,84.57
2018-10-19T05:07:51.049Z,105.13
2018-10-19T05:10:19.827Z,88.47
2018-10-19T05:12:48.214Z,100.80
2018-10-19T05:15:16.736Z,96.60
2018-10-19T05:17:45.326Z,92.67
2018-10-19T05:20:14.113Z,101.30
2018-10-19T05:22:42.413Z,88.93
2018-10-19T05:25:12.289Z,82.53
2018-10-19T05:27:40.571Z,96.53
2018-10-19T05:30:10.636Z,172.90
2018-10-19T05:32:39.757Z,113.77
2018-10-19T05:35:08.018Z,79.73
2018-10-19T05:37:37.032Z,242.27
2018-10-19T05:40:05.942Z,97.00
2018-10-19T05:42:34.802Z,108.07
2018-10-19T05:45:03.082Z,137.50
2018-10-19T05:47:31.545Z,66.33
2018-10-19T05:49:59.847Z,116.30
2018-10-19T05:52:27.985Z,74.73
2018-10-19T05:54:56.295Z,99.23
2018-10-19T05:57:24.752Z,102.30
2018-10-19T05:59:53.014Z,136.33
2018-10-19T06:02:21.300Z,83.87
2018-10-19T06:04:49.638Z,78.63
2018-10-19T06:07:17.939Z,71.53
2018-10-19T06:09:46.289Z,87.03
2018-10-19T06:12:14.636Z,93.20
2018-10-19T06:14:42.892Z,92.40
2018-10-19T06:17:11.328Z,57.17
2018-10-19T06:19:39.475Z,58.67
2018-10-19T06:22:07.747Z,55.23
2018-10-19T06:24:36.064Z,72.70
2018-10-19T06:27:04.567Z,124.83
2018-10-19T06:29:32.746Z,126.67
2018-10-19T06:32:00.959Z,75.63
2018-10-19T06:34:29.171Z,90.30
2018-10-19T06:36:57.359Z,107.23
2018-10-19T06:39:25.568Z,101.30
2018-10-19T06:41:53.968Z,93.00
2018-10-19T06:44:22.203Z,66.90
2018-10-19T06:46:50.586Z,87.40
2018-10-19T06:49:18.731Z,337.03
2018-10-19T06:51:46.991Z,99.87
2018-10-19T06:54:15.382Z,72.10
2018-10-19T06:56:43.624Z,69.67
2018-10-19T06:59:12.018Z,103.70
2018-10-19T07:01:40.120Z,73.40
2018-10-19T07:04:08.346Z,87.73
2018-10-19T07:06:36.520Z,67.07
2018-10-19T07:09:06.032Z,60.33
2018-10-19T07:11:34.428Z,68.53
2018-10-19T07:14:02.667Z,68.50
2018-10-19T07:16:30.840Z,58.00
2018-10-19T07:18:59.215Z,114.00
2018-10-19T07:21:27.430Z,94.00
2018-10-19T07:23:55.682Z,71.70
2018-10-19T07:26:23.988Z,67.03
2018-10-19T07:28:52.352Z,83.27
2018-10-19T07:31:20.471Z,108.37
2018-10-19T07:33:48.775Z,128.23
2018-10-19T07:36:17.070Z,81.83
2018-10-19T07:38:45.291Z,121.57
2018-10-19T07:41:13.591Z,185.27
2018-10-19T07:43:41.854Z,155.40
2018-10-19T07:46:10.614Z,260.77
2018-10-19T07:48:38.903Z,166.10
2018-10-19T07:51:07.076Z,125.63
2018-10-19T07:53:35.333Z,140.83
2018-10-19T07:56:03.647Z,96.33
2018-10-19T07:58:31.904Z,64.73
2018-10-19T08:01:00.574Z,62.97
2018-10-19T08:03:28.839Z,75.37
2018-10-19T08:05:57.035Z,74.97
2018-10-19T08:08:25.281Z,51.30
2018-10-19T08:10:53.635Z,53.77
2018-10-19T08:13:21.863Z,83.63
2018-10-19T08:15:52.344Z,54.47
2018-10-19T08:18:20.554Z,59.90
2018-10-19T08:20:48.779Z,54.27
2018-10-19T08:23:17.150Z,56.40
2018-10-19T08:25:45.355Z,57.63
2018-10-19T08:28:13.788Z,56.37
2018-10-19T08:30:42.116Z,58.13
2018-10-19T08:33:10.380Z,55.30
2018-10-19T08:35:38.719Z,54.17
2018-10-19T08:38:06.975Z,54.47
2018-10-19T08:40:35.279Z,58.80
2018-10-19T08:43:03.483Z,66.30
2018-10-19T08:45:31.766Z,63.73
2018-10-19T08:48:00.186Z,55.63
2018-10-19T08:50:28.496Z,51.37
2018-10-19T08:52:56.741Z,51.17
2018-10-19T08:55:25.027Z,54.20
2018-10-19T08:57:53.542Z,67.20
2018-10-19T09:00:21.821Z,53.97
2018-10-19T09:02:50.092Z,54.73
2018-10-19T09:05:18.956Z,53.67
2018-10-19T09:07:47.259Z,88.50
2018-10-19T09:10:15.499Z,55.87
2018-10-19T09:12:43.881Z,59.60
2018-10-19T09:15:11.996Z,61.73
2018-10-19T09:17:40.496Z,54.70
2018-10-19T09:20:08.698Z,59.13
2018-10-19T09:22:36.907Z,62.43
2018-10-19T09:25:05.672Z,57.47
2018-10-19T09:27:34.094Z,54.10
2018-10-19T09:30:02.419Z,58.50
2018-10-19T09:32:30.634Z,60.43
2018-10-19T09:34:58.847Z,64.40
2018-10-19T09:37:27.131Z,56.77
2018-10-19T09:39:55.546Z,64.40
2018-10-19T09:42:23.834Z,66.63
2018-10-19T09:44:52.356Z,61.13
2018-10-19T09:47:20.606Z,64.60
2018-10-19T09:49:48.894Z,59.50
2018-10-19T09:52:17.103Z,63.17
2018-10-19T09:54:45.672Z,56.73
2018-10-19T09:57:14.025Z,57.30
2018-10-19T09:59:42.260Z,59.83
2018-10-19T10:02:10.643Z,59.63
2018-10-19T10:04:39.959Z,59.13
2018-10-19T10:07:08.261Z,57.90
2018-10-19T10:09:36.479Z,59.43
2018-10-19T10:12:04.960Z,58.63
2018-10-19T10:14:33.238Z,60.67
2018-10-19T10:17:01.537Z,59.93
2018-10-19T10:19:29.752Z,57.47
2018-10-19T10:21:57.968Z,55.77
2018-10-19T10:24:26.230Z,53.67
2018-10-19T10:26:54.426Z,61.70
2018-10-19T10:29:22.703Z,67.40
2018-10-19T10:31:51.369Z,77.70
2018-10-19T10:34:19.551Z,59.40
2018-10-19T10:36:48.043Z,64.10
2018-10-19T10:39:16.332Z,66.80
2018-10-19T10:41:44.442Z,62.10
2018-10-19T10:44:12.806Z,69.33
2018-10-19T10:46:41.048Z,65.20
2018-10-19T10:49:09.331Z,63.27
2018-10-19T10:51:37.540Z,67.17
2018-10-19T10:54:05.791Z,61.63
2018-10-19T10:56:34.475Z,63.90
2018-10-19T10:59:02.675Z,73.30
2018-10-19T11:01:31.042Z,62.90
2018-10-19T11:03:59.431Z,63.03
2018-10-19T11:06:27.753Z,61.90
2018-10-19T11:08:55.939Z,63.60
2018-10-19T11:11:24.139Z,63.27
2018-10-19T11:13:52.377Z,62.23
2018-10-19T11:16:20.704Z,71.70
2018-10-19T11:18:49.884Z,60.57
2018-10-19T11:21:18.468Z,63.43
2018-10-19T11:23:46.690Z,69.40
2018-10-19T11:26:15.033Z,64.03
2018-10-19T11:28:43.324Z,65.20
2018-10-19T11:31:11.607Z,60.67
2018-10-19T11:33:39.868Z,56.40
2018-10-19T11:36:08.066Z,57.07
2018-10-19T11:38:36.260Z,59.00
2018-10-19T11:41:04.603Z,63.83
2018-10-19T11:43:32.854Z,60.80
2018-10-19T11:46:01.564Z,60.43
2018-10-19T11:48:29.923Z,61.60
2018-10-19T11:50:58.806Z,55.33
2018-10-19T11:53:27.188Z,63.23
2018-10-19T11:55:55.808Z,55.33
2018-10-19T11:58:24.007Z,58.37
2018-10-19T12:00:52.602Z,58.63
2018-10-19T12:03:20.954Z,52.90
2018-10-19T12:05:49.818Z,55.53
2018-10-19T12:08:18.298Z,60.93
2018-10-19T12:10:46.646Z,53.67
2018-10-19T12:13:14.980Z,56.00
2018-10-19T12:15:43.290Z,51.93
2018-10-19T12:18:11.567Z,53.23
2018-10-19T12:20:39.874Z,53.03
2018-10-19T12:23:08.128Z,57.30
2018-10-19T12:25:36.653Z,58.83
2018-10-19T12:28:05.393Z,57.20
2018-10-19T12:30:34.083Z,56.40
2018-10-19T12:33:02.938Z,58.27
2018-10-19T12:35:32.416Z,61.03
2018-10-19T12:38:01.351Z,57.63
2018-10-19T12:40:30.008Z,58.23
2018-10-19T12:42:58.871Z,55.07
2018-10-19T12:46:38.382Z,63.00
2018-10-19T12:49:06.809Z,61.13
2018-10-19T12:51:35.406Z,61.10
2018-10-19T12:54:03.648Z,57.13
2018-10-19T12:56:32.087Z,58.50
2018-10-19T12:59:00.367Z,56.60
2018-10-19T13:01:29.425Z,60.87
2018-10-19T13:03:58.223Z,56.20
2018-10-19T13:06:27.405Z,60.77
2018-10-19T13:08:55.815Z,56.50
2018-10-19T13:11:24.343Z,57.37
2018-10-19T13:13:52.742Z,58.97
2018-10-19T13:16:21.247Z,61.83
2018-10-19T13:18:49.818Z,61.53
2018-10-19T13:21:18.079Z,60.33
2018-10-19T13:23:46.276Z,61.63
2018-10-19T13:26:14.550Z,57.50
2018-10-19T13:28:42.798Z,54.30
2018-10-19T13:31:11.070Z,62.47
2018-10-19T13:33:39.351Z,60.53
2018-10-19T13:36:07.768Z,62.93
2018-10-19T13:38:36.167Z,57.73
2018-10-19T13:41:04.626Z,62.67
2018-10-19T13:43:33.296Z,57.30
2018-10-19T13:46:01.908Z,59.43
2018-10-19T13:48:30.122Z,61.90
2018-10-19T13:50:58.474Z,61.53
2018-10-19T13:53:26.780Z,56.63
2018-10-19T13:55:55.027Z,57.37
2018-10-19T13:58:23.365Z,55.27
2018-10-19T14:00:52.428Z,58.17
2018-10-19T14:03:20.666Z,63.03
2018-10-19T14:05:49.055Z,56.77
2018-10-19T14:08:17.523Z,55.53
2018-10-19T14:10:45.764Z,59.73
2018-10-19T14:13:14.099Z,60.97
2018-10-19T14:15:42.366Z,62.63
2018-10-19T14:18:10.560Z,59.23
2018-10-19T14:20:38.931Z,55.80
2018-10-19T14:23:07.260Z,57.23
2018-10-19T14:25:35.412Z,65.10
2018-10-19T14:28:03.638Z,53.97
2018-10-19T14:30:31.954Z,52.43
2018-10-19T14:33:00.326Z,58.30
2018-10-19T14:35:28.552Z,57.10
2018-10-19T14:37:56.959Z,55.70
2018-10-19T14:40:25.359Z,59.17
2018-10-19T14:42:53.729Z,62.83
2018-10-19T14:45:21.985Z,57.47
2018-10-19T14:47:50.187Z,54.83
2018-10-19T14:50:19.010Z,59.70
2018-10-19T14:52:47.648Z,58.67
2018-10-19T14:55:17.207Z,62.27
2018-10-19T14:57:46.436Z,61.57
2018-10-19T15:00:16.797Z,66.23
2018-10-19T15:02:45.678Z,58.80
2018-10-19T15:05:15.808Z,62.73
2018-10-19T15:07:43.938Z,65.43
2018-10-19T15:10:14.842Z,66.10
2018-10-19T15:12:43.420Z,65.90
2018-10-19T15:15:13.879Z,64.97
2018-10-19T15:17:42.266Z,59.43
2018-10-19T15:20:10.932Z,65.00
2018-10-19T15:22:39.133Z,65.33
2018-10-19T15:25:08.351Z,67.80
2018-10-19T15:27:36.781Z,61.87
2018-10-19T15:30:05.995Z,65.97
2018-10-19T15:32:34.258Z,66.50
2018-10-19T15:35:02.506Z,64.90
2018-10-19T15:37:30.762Z,64.67
2018-10-19T15:39:58.985Z,63.07
2018-10-19T15:42:27.239Z,64.10
2018-10-19T15:44:55.442Z,66.70
2018-10-19T15:47:26.575Z,65.37
2018-10-19T15:49:56.284Z,67.00
2018-10-19T15:52:24.658Z,61.17
2018-10-19T15:54:54.516Z,62.80
2018-10-19T15:57:22.936Z,62.03
2018-10-19T15:59:51.411Z,65.73
2018-10-19T16:02:19.622Z,62.30
2018-10-19T16:04:49.294Z,65.50
2018-10-19T16:07:18.225Z,66.47
2018-10-19T16:09:47.309Z,67.90
2018-10-19T16:12:15.981Z,67.07
2018-10-19T16:14:44.596Z,68.10
2018-10-19T16:17:13.261Z,70.17
2018-10-19T16:19:42.218Z,72.13
2018-10-19T16:22:11.293Z,67.53
2018-10-19T16:24:40.376Z,59.07
2018-10-19T16:27:08.793Z,58.07
2018-10-19T16:29:37.030Z,55.53
2018-10-19T16:32:05.819Z,54.00
2018-10-19T16:34:34.051Z,53.83
2018-10-19T16:37:02.279Z,51.30
2018-10-19T16:39:30.991Z,53.17
2018-10-19T16:41:59.452Z,56.30
2018-10-19T16:44:27.693Z,55.63
2018-10-19T16:46:57.259Z,59.37
2018-10-19T16:49:25.839Z,67.23
2018-10-19T16:51:54.254Z,58.80
2018-10-19T16:54:22.741Z,55.23
2018-10-19T16:56:51.159Z,58.97
2018-10-19T16:59:19.699Z,63.13
2018-10-19T17:01:48.019Z,70.63
2018-10-19T17:04:16.321Z,71.70
2018-10-19T17:06:44.994Z,61.27
2018-10-19T17:09:14.355Z,67.43
2018-10-19T17:11:42.950Z,64.13
2018-10-19T17:14:12.183Z,59.40
2018-10-19T17:16:40.723Z,65.37
2018-10-19T17:19:09.440Z,67.83
2018-10-19T17:21:37.954Z,62.20
2018-10-19T17:24:06.833Z,60.90
2018-10-19T17:26:35.103Z,62.60
2018-10-19T17:29:03.960Z,56.70
2018-10-19T17:31:32.728Z,52.80
2018-10-19T17:34:01.488Z,60.27
2018-10-19T17:36:30.190Z,56.80
2018-10-19T17:38:58.754Z,58.70
2018-10-19T17:41:27.671Z,58.00
2018-10-19T17:43:56.389Z,57.30
2018-10-19T17:46:24.753Z,58.80
2018-10-19T17:48:53.459Z,61.20
2018-10-19T17:51:21.735Z,55.93
2018-10-19T17:53:50.061Z,57.67
2018-10-19T17:56:19.015Z,60.17
2018-10-19T17:58:47.260Z,57.13
2018-10-19T18:01:16.168Z,61.70
2018-10-19T18:03:44.794Z,57.23
2018-10-19T18:06:13.170Z,56.83
2018-10-19T18:08:41.538Z,55.30
2018-10-19T18:11:10.186Z,56.57
2018-10-19T18:13:38.367Z,57.00
2018-10-19T18:16:07.414Z,55.60
2018-10-19T18:18:36.020Z,60.23
2018-10-19T18:21:04.629Z,50.70
2018-10-19T18:23:33.098Z,51.33
2018-10-19T18:26:01.466Z,51.53
2018-10-19T18:28:29.939Z,56.20
2018-10-19T18:30:59.228Z,72.63
2018-10-19T18:33:27.620Z,61.80
2018-10-19T18:35:55.864Z,51.03
2018-10-19T18:38:24.448Z,45.63
2018-10-19T18:40:52.731Z,44.23
2018-10-19T18:43:21.073Z,50.87
2018-10-19T18:45:49.351Z,41.23
2018-10-19T18:48:17.609Z,42.87
2018-10-19T18:50:46.345Z,45.77
2018-10-19T18:53:14.798Z,41.57
2018-10-19T18:55:43.138Z,40.63
2018-10-19T18:58:11.523Z,35.73
2018-10-19T19:00:39.896Z,38.20
2018-10-19T19:03:08.293Z,41.40
2018-10-19T19:05:37.723Z,38.20
2018-10-19T19:08:07.117Z,36.27
2018-10-19T19:10:36.280Z,40.53
2018-10-19T19:13:09.981Z,38.90
2018-10-19T19:15:39.617Z,37.80
2018-10-19T19:18:08.416Z,42.70
2018-10-19T19:20:37.108Z,38.17
2018-10-19T19:23:06.031Z,40.17
2018-10-19T19:25:39.806Z,35.03
2018-10-19T19:28:08.199Z,38.50
2018-10-19T19:30:36.966Z,36.53
2018-10-19T19:33:11.379Z,39.70
2018-10-19T19:35:39.978Z,38.50
2018-10-19T19:38:08.928Z,42.53
2018-10-19T19:40:42.533Z,40.23
2018-10-19T19:43:12.143Z,50.07
2018-10-19T19:45:40.546Z,44.10
2018-10-19T19:48:14.412Z,47.67
2018-10-19T19:50:42.786Z,43.37
2018-10-19T19:53:11.121Z,40.07
2018-10-19T19:55:39.574Z,40.20
2018-10-19T19:58:08.209Z,40.77
2018-10-19T20:00:36.897Z,40.93
2018-10-19T20:03:05.618Z,43.40
2018-10-19T20:05:35.188Z,40.67
2018-10-19T20:08:03.685Z,41.20
2018-10-19T20:10:32.527Z,33.67
2018-10-19T20:13:02.700Z,36.87
2018-10-19T20:15:31.507Z,36.67
2018-10-19T20:18:02.123Z,37.93
2018-10-19T20:20:30.626Z,41.27
2018-10-19T20:22:59.371Z,40.70
2018-10-19T20:25:27.624Z,52.23
2018-10-19T20:27:57.395Z,52.87
2018-10-19T20:30:25.649Z,42.63
2018-10-19T20:32:54.337Z,42.10
2018-10-19T20:35:23.598Z,45.73
2018-10-19T20:37:51.904Z,52.50
2018-10-19T20:40:20.561Z,53.40
2018-10-19T20:42:50.277Z,49.70
2018-10-19T20:45:19.140Z,54.17
2018-10-19T20:47:47.519Z,55.67
2018-10-19T20:50:16.722Z,54.67
2018-10-19T20:52:45.076Z,63.17
2018-10-19T20:55:13.547Z,56.70
2018-10-19T20:57:42.014Z,55.03
2018-10-19T21:00:10.402Z,52.07
2018-10-19T21:02:38.962Z,43.87
2018-10-19T21:05:09.261Z,45.87
2018-10-19T21:07:37.804Z,43.53
2018-10-19T21:10:08.018Z,44.47
2018-10-19T21:12:36.745Z,52.30
2018-10-19T21:15:06.175Z,52.40
2018-10-19T21:17:34.406Z,46.33
2018-10-19T21:20:03.017Z,50.93
2018-10-19T21:22:31.344Z,50.17
2018-10-19T21:25:00.467Z,51.67
2018-10-19T21:27:29.098Z,46.00
2018-10-19T21:29:58.584Z,45.50
2018-10-19T21:32:27.085Z,48.00
2018-10-19T21:34:55.621Z,45.77
2018-10-19T21:37:24.053Z,45.50
2018-10-19T21:39:53.814Z,38.87
2018-10-19T21:42:22.371Z,40.93
2018-10-19T21:44:51.624Z,39.73
2018-10-19T21:47:19.965Z,41.33
2018-10-19T21:49:48.370Z,39.03
2018-10-19T21:52:17.182Z,46.83
2018-10-19T21:54:45.513Z,58.83
2018-10-19T21:57:13.760Z,52.90
2018-10-19T21:59:42.176Z,54.43
2018-10-19T22:02:11.065Z,51.47
2018-10-19T22:04:39.637Z,45.27
2018-10-19T22:07:08.856Z,45.27
2018-10-19T22:09:37.095Z,47.30
2018-10-19T22:12:06.995Z,51.83
2018-10-19T22:14:35.667Z,50.37
2018-10-19T22:17:03.954Z,47.53
2018-10-19T22:19:32.663Z,43.90
2018-10-19T22:22:00.987Z,51.83
2018-10-19T22:24:31.147Z,49.87
2018-10-19T22:26:59.640Z,40.80
2018-10-19T22:29:27.828Z,59.50
2018-10-19T22:31:56.180Z,129.90
2018-10-19T22:34:24.603Z,74.27
2018-10-19T22:36:53.348Z,63.37
2018-10-19T22:39:21.958Z,57.50
2018-10-19T22:41:50.507Z,60.53
2018-10-19T22:44:19.178Z,52.83
2018-10-19T22:46:47.527Z,56.40
2018-10-19T22:49:15.934Z,57.33
2018-10-19T22:51:44.370Z,62.53
2018-10-19T22:54:12.731Z,64.77
2018-10-19T22:56:41.700Z,56.37
2018-10-19T22:59:10.145Z,57.77
2018-10-19T23:01:38.314Z,57.80
2018-10-19T23:04:06.988Z,69.20
2018-10-19T23:06:35.364Z,67.77
2018-10-19T23:09:04.256Z,65.17
2018-10-19T23:11:32.791Z,58.30
2018-10-19T23:14:01.848Z,53.70
2018-10-19T23:16:30.471Z,61.70
2018-10-19T23:18:59.921Z,73.93
2018-10-19T23:21:28.216Z,66.67
2018-10-19T23:23:56.584Z,108.97
2018-10-19T23:26:26.034Z,74.57
2018-10-19T23:28:54.669Z,115.07
2018-10-19T23:31:23.280Z,87.00
2018-10-19T23:33:52.030Z,62.53
2018-10-19T23:36:21.404Z,71.30
2018-10-19T23:38:50.189Z,65.00
2018-10-19T23:41:19.085Z,56.17
2018-10-19T23:43:48.063Z,85.47
2018-10-19T23:46:16.195Z,105.97
2018-10-19T23:48:44.623Z,158.83
2018-10-19T23:51:13.119Z,67.83
2018-10-19T23:53:41.363Z,81.50
2018-10-19T23:56:09.935Z,90.23
2018-10-19T23:58:38.191Z,119.73
